createdAt,value
2017-07-24T00:01:15.598Z,0
2017-07-24T00:02:37.468Z,0
2017-07-24T00:03:59.302Z,0
2017-07-24T00:05:21.697Z,0
2017-07-24T00:06:43.860Z,0
2017-07-24T00:08:06.104Z,0
2017-07-24T00:09:28.272Z,0
2017-07-24T00:10:50.825Z,0
2017-07-24T00:12:12.508Z,0
2017-07-24T00:13:34.761Z,0
2017-07-24T00:14:56.932Z,0
2017-07-24T00:16:19.789Z,0
2017-07-24T00:17:41.941Z,0
2017-07-24T00:19:04.106Z,0
2017-07-24T00:20:26.268Z,0
2017-07-24T00:21:48.673Z,0
2017-07-24T00:23:10.574Z,0
2017-07-24T00:24:32.416Z,0
2017-07-24T00:25:54.659Z,0
2017-07-24T00:27:17.216Z,0
2017-07-24T00:28:38.727Z,0
2017-07-24T00:30:00.569Z,0
2017-07-24T00:31:23.026Z,0
2017-07-24T00:32:45.613Z,0
2017-07-24T00:34:07.813Z,0
2017-07-24T00:35:29.958Z,0
2017-07-24T00:36:51.586Z,0
2017-07-24T00:38:13.149Z,0
2017-07-24T00:39:35.302Z,0
2017-07-24T00:40:57.127Z,0
2017-07-24T00:42:19.014Z,0
2017-07-24T00:43:41.191Z,0
2017-07-24T00:45:03.419Z,0
2017-07-24T00:46:25.886Z,0
2017-07-24T00:47:47.734Z,0
2017-07-24T00:49:10.170Z,0
2017-07-24T00:50:31.805Z,0
2017-07-24T00:51:53.318Z,0
2017-07-24T00:53:15.148Z,0
2017-07-24T00:54:37.619Z,0
2017-07-24T00:55:58.828Z,0
2017-07-24T00:57:21.317Z,0
2017-07-24T00:58:43.484Z,0
2017-07-24T01:00:06.309Z,0
2017-07-24T01:01:28.512Z,0
2017-07-24T01:02:50.646Z,0
2017-07-24T01:04:12.488Z,0
2017-07-24T01:05:34.378Z,0
2017-07-24T01:06:55.909Z,0
2017-07-24T01:08:17.138Z,0
2017-07-24T01:09:39.290Z,0
2017-07-24T01:11:01.468Z,0
2017-07-24T01:12:23.714Z,0
2017-07-24T01:13:45.865Z,0
2017-07-24T01:15:08.037Z,0
2017-07-24T01:16:29.499Z,0
2017-07-24T01:17:50.701Z,0
2017-07-24T01:19:12.858Z,0
2017-07-24T01:20:34.700Z,0
2017-07-24T01:21:56.831Z,0
2017-07-24T01:23:18.651Z,0
2017-07-24T01:24:40.790Z,0
2017-07-24T01:26:02.626Z,0
2017-07-24T01:27:25.088Z,0
2017-07-24T01:28:46.286Z,0
2017-07-24T01:30:08.741Z,0
2017-07-24T01:31:30.580Z,0
2017-07-24T01:32:52.798Z,0
2017-07-24T01:34:14.976Z,0
2017-07-24T01:35:37.104Z,0
2017-07-24T01:36:58.937Z,0
2017-07-24T01:38:21.650Z,0
2017-07-24T01:39:43.829Z,0
2017-07-24T01:41:06.012Z,0
2017-07-24T01:42:27.538Z,0
2017-07-24T01:43:49.983Z,0
2017-07-24T01:45:11.509Z,0
2017-07-24T01:46:33.767Z,0
2017-07-24T01:47:56.045Z,0
2017-07-24T01:49:18.285Z,0
2017-07-24T01:50:40.457Z,0
2017-07-24T01:52:02.385Z,0
2017-07-24T01:53:24.837Z,0
2017-07-24T01:54:47.248Z,0
2017-07-24T01:56:09.815Z,0
2017-07-24T01:57:31.330Z,0
2017-07-24T01:58:53.788Z,0
2017-07-24T02:00:16.177Z,0
2017-07-24T02:01:37.792Z,0
2017-07-24T02:02:59.617Z,0
2017-07-24T02:04:21.430Z,0
2017-07-24T02:05:43.617Z,0
2017-07-24T02:07:05.797Z,0
2017-07-24T02:08:28.314Z,0
2017-07-24T02:09:49.898Z,0
2017-07-24T02:11:12.324Z,0
2017-07-24T02:12:34.829Z,0
2017-07-24T02:13:56.390Z,0
2017-07-24T02:15:18.539Z,0
2017-07-24T02:16:41.318Z,0
2017-07-24T02:18:03.178Z,0
2017-07-24T02:19:25.007Z,0
2017-07-24T02:20:46.534Z,0
2017-07-24T02:22:08.337Z,0
2017-07-24T02:23:30.177Z,0
2017-07-24T02:24:51.996Z,0
2017-07-24T02:26:13.826Z,0
2017-07-24T02:27:36.588Z,0
2017-07-24T02:28:58.103Z,0
2017-07-24T02:30:19.678Z,0
2017-07-24T02:31:41.852Z,0
2017-07-24T02:33:04.317Z,0
2017-07-24T02:34:26.568Z,0
2017-07-24T02:35:48.187Z,0
2017-07-24T02:37:10.029Z,0
2017-07-24T02:38:32.467Z,0
2017-07-24T02:39:54.399Z,0
2017-07-24T02:41:16.297Z,0
2017-07-24T02:42:38.782Z,0
2017-07-24T02:44:01.494Z,0
2017-07-24T02:45:23.038Z,0
2017-07-24T02:46:45.367Z,0
2017-07-24T02:48:07.257Z,0
2017-07-24T02:49:29.397Z,0
2017-07-24T02:50:51.570Z,0
2017-07-24T02:52:13.766Z,0
2017-07-24T02:53:35.707Z,0
2017-07-24T02:54:57.997Z,0
2017-07-24T02:56:19.867Z,0
2017-07-24T02:57:41.998Z,0
2017-07-24T02:59:04.169Z,0
2017-07-24T03:00:25.948Z,0
2017-07-24T03:01:47.475Z,0
2017-07-24T03:03:08.666Z,0
2017-07-24T03:04:30.187Z,0
2017-07-24T03:05:51.801Z,0
2017-07-24T03:07:13.625Z,0
2017-07-24T03:08:35.153Z,0
2017-07-24T03:09:56.678Z,0
2017-07-24T03:11:18.778Z,0
2017-07-24T03:12:40.679Z,0
2017-07-24T03:14:02.837Z,0
2017-07-24T03:15:24.741Z,0
2017-07-24T03:16:47.189Z,5
2017-07-24T03:18:09.427Z,5
2017-07-24T03:19:30.508Z,5
2017-07-24T03:20:52.666Z,5
2017-07-24T03:22:14.477Z,5
2017-07-24T03:23:35.386Z,5
2017-07-24T03:24:56.905Z,5
2017-07-24T03:26:19.147Z,5
2017-07-24T03:27:41.954Z,5
2017-07-24T03:29:04.119Z,5
2017-07-24T03:30:26.575Z,5
2017-07-24T03:31:48.445Z,5
2017-07-24T03:33:10.858Z,5
2017-07-24T03:34:32.706Z,10
2017-07-24T03:35:55.176Z,10
2017-07-24T03:37:17.036Z,10
2017-07-24T03:38:39.547Z,15
2017-07-24T03:40:01.176Z,15
2017-07-24T03:41:23.324Z,15
2017-07-24T03:42:45.160Z,15
2017-07-24T03:44:07.607Z,15
2017-07-24T03:45:29.766Z,20
2017-07-24T03:46:51.926Z,20
2017-07-24T03:48:13.787Z,25
2017-07-24T03:49:36.018Z,25
2017-07-24T03:50:57.534Z,30
2017-07-24T03:52:19.376Z,30
2017-07-24T03:53:41.192Z,35
2017-07-24T03:55:03.606Z,35
2017-07-24T03:56:24.847Z,40
2017-07-24T03:57:47.005Z,40
2017-07-24T03:59:08.846Z,40
2017-07-24T04:00:31.256Z,40
2017-07-24T04:01:52.772Z,45
2017-07-24T04:03:14.937Z,45
2017-07-24T04:04:37.135Z,50
2017-07-24T04:05:59.864Z,50
2017-07-24T04:07:22.345Z,50
2017-07-24T04:08:44.167Z,55
2017-07-24T04:10:06.498Z,50
2017-07-24T04:11:28.964Z,55
2017-07-24T04:12:50.499Z,55
2017-07-24T04:14:12.778Z,60
2017-07-24T04:15:34.637Z,65
2017-07-24T04:16:56.806Z,70
2017-07-24T04:18:19.377Z,75
2017-07-24T04:19:41.617Z,85
2017-07-24T04:21:03.445Z,90
2017-07-24T04:22:25.886Z,90
2017-07-24T04:23:47.724Z,95
2017-07-24T04:25:09.539Z,95
2017-07-24T04:26:31.478Z,100
2017-07-24T04:27:53.247Z,105
2017-07-24T04:29:14.758Z,110
2017-07-24T04:30:36.587Z,110
2017-07-24T04:31:58.754Z,120
2017-07-24T04:33:21.527Z,125
2017-07-24T04:34:44.053Z,125
2017-07-24T04:36:05.987Z,125
2017-07-24T04:37:27.830Z,130
2017-07-24T04:38:49.948Z,130
2017-07-24T04:40:12.089Z,135
2017-07-24T04:41:33.938Z,125
2017-07-24T04:42:55.272Z,125
2017-07-24T04:44:17.396Z,125
2017-07-24T04:45:39.253Z,120
2017-07-24T04:47:01.199Z,115
2017-07-24T04:48:22.715Z,115
2017-07-24T04:49:44.476Z,110
2017-07-24T04:51:05.989Z,110
2017-07-24T04:52:28.161Z,110
2017-07-24T04:53:50.636Z,110
2017-07-24T04:55:12.555Z,115
2017-07-24T04:56:35.097Z,115
2017-07-24T04:57:57.266Z,120
2017-07-24T04:59:19.420Z,125
2017-07-24T05:00:41.867Z,125
2017-07-24T05:02:03.706Z,125
2017-07-24T05:03:25.553Z,130
2017-07-24T05:04:47.399Z,130
2017-07-24T05:06:09.548Z,135
2017-07-24T05:07:31.707Z,140
2017-07-24T05:08:53.553Z,150
2017-07-24T05:10:15.403Z,165
2017-07-24T05:11:37.853Z,190
2017-07-24T05:12:59.753Z,220
2017-07-24T05:14:21.587Z,240
2017-07-24T05:15:43.750Z,225
2017-07-24T05:17:06.197Z,260
2017-07-24T05:18:28.368Z,270
2017-07-24T05:19:50.178Z,210
2017-07-24T05:21:12.357Z,200
2017-07-24T05:22:34.443Z,195
2017-07-24T05:23:55.951Z,190
2017-07-24T05:25:17.637Z,185
2017-07-24T05:26:39.806Z,185
2017-07-24T05:28:01.918Z,195
2017-07-24T05:29:23.431Z,200
2017-07-24T05:30:44.979Z,200
2017-07-24T05:32:07.137Z,190
2017-07-24T05:33:29.285Z,185
2017-07-24T05:34:51.424Z,185
2017-07-24T05:36:13.279Z,190
2017-07-24T05:37:35.428Z,200
2017-07-24T05:38:57.866Z,215
2017-07-24T05:40:19.727Z,225
2017-07-24T05:41:41.868Z,230
2017-07-24T05:43:03.399Z,230
2017-07-24T05:44:26.206Z,225
2017-07-24T05:45:48.056Z,225
2017-07-24T05:47:09.937Z,230
2017-07-24T05:48:32.513Z,245
2017-07-24T05:49:54.336Z,255
2017-07-24T05:51:16.161Z,265
2017-07-24T05:52:38.737Z,285
2017-07-24T05:54:00.329Z,280
2017-07-24T05:55:22.429Z,270
2017-07-24T05:56:44.435Z,290
2017-07-24T05:58:06.330Z,295
2017-07-24T05:59:27.840Z,390
2017-07-24T06:00:50.354Z,450
2017-07-24T06:02:12.607Z,520
2017-07-24T06:03:34.769Z,475
2017-07-24T06:04:56.629Z,500
2017-07-24T06:06:19.036Z,500
2017-07-24T06:07:40.869Z,410
2017-07-24T06:09:03.027Z,500
2017-07-24T06:10:24.559Z,560
2017-07-24T06:11:47.470Z,565
2017-07-24T06:13:09.940Z,535
2017-07-24T06:14:32.467Z,420
2017-07-24T06:15:54.013Z,360
2017-07-24T06:17:16.198Z,330
2017-07-24T06:18:38.076Z,315
2017-07-24T06:20:00.546Z,325
2017-07-24T06:21:23.034Z,340
2017-07-24T06:22:45.737Z,335
2017-07-24T06:24:06.727Z,325
2017-07-24T06:25:28.586Z,345
2017-07-24T06:26:51.072Z,345
2017-07-24T06:28:13.465Z,370
2017-07-24T06:29:35.323Z,390
2017-07-24T06:30:57.165Z,390
2017-07-24T06:32:19.347Z,395
2017-07-24T06:33:41.857Z,405
2017-07-24T06:35:04.130Z,405
2017-07-24T06:36:26.336Z,410
2017-07-24T06:37:47.568Z,405
2017-07-24T06:39:10.038Z,395
2017-07-24T06:40:32.263Z,385
2017-07-24T06:41:54.426Z,380
2017-07-24T06:43:16.256Z,380
2017-07-24T06:44:38.406Z,365
2017-07-24T06:46:00.578Z,365
2017-07-24T06:47:22.739Z,365
2017-07-24T06:48:44.898Z,380
2017-07-24T06:50:07.350Z,385
2017-07-24T06:51:29.529Z,390
2017-07-24T06:52:51.361Z,410
2017-07-24T06:54:13.194Z,420
2017-07-24T06:55:35.378Z,430
2017-07-24T06:56:56.959Z,430
2017-07-24T06:58:19.144Z,420
2017-07-24T06:59:41.416Z,420
2017-07-24T07:01:04.191Z,430
2017-07-24T07:02:26.544Z,440
2017-07-24T07:03:48.785Z,445
2017-07-24T07:05:10.735Z,445
2017-07-24T07:06:33.376Z,440
2017-07-24T07:07:55.568Z,435
2017-07-24T07:09:18.064Z,425
2017-07-24T07:10:39.915Z,425
2017-07-24T07:12:02.388Z,385
2017-07-24T07:13:24.228Z,345
2017-07-24T07:14:46.403Z,310
2017-07-24T07:16:08.668Z,305
2017-07-24T07:17:31.405Z,290
2017-07-24T07:18:53.246Z,275
2017-07-24T07:20:15.166Z,270
2017-07-24T07:21:37.316Z,260
2017-07-24T07:22:59.766Z,260
2017-07-24T07:24:22.256Z,255
2017-07-24T07:25:44.107Z,255
2017-07-24T07:27:06.036Z,255
2017-07-24T07:28:28.151Z,260
2017-07-24T07:29:50.369Z,270
2017-07-24T07:31:12.825Z,290
2017-07-24T07:32:34.687Z,305
2017-07-24T07:33:56.969Z,315
2017-07-24T07:35:18.816Z,315
2017-07-24T07:36:40.667Z,315
2017-07-24T07:38:02.196Z,310
2017-07-24T07:39:23.806Z,295
2017-07-24T07:40:46.087Z,280
2017-07-24T07:42:08.567Z,280
2017-07-24T07:43:31.138Z,270
2017-07-24T07:44:53.696Z,275
2017-07-24T07:46:15.914Z,290
2017-07-24T07:47:37.816Z,315
2017-07-24T07:48:59.020Z,345
2017-07-24T07:50:21.467Z,345
2017-07-24T07:51:44.380Z,350
2017-07-24T07:53:06.229Z,360
2017-07-24T07:54:27.757Z,380
2017-07-24T07:55:50.186Z,410
2017-07-24T07:57:12.036Z,435
2017-07-24T07:58:34.204Z,445
2017-07-24T07:59:56.358Z,440
2017-07-24T08:01:18.778Z,440
2017-07-24T08:02:40.958Z,420
2017-07-24T08:04:03.246Z,410
2017-07-24T08:05:25.427Z,400
2017-07-24T08:06:47.859Z,400
2017-07-24T08:08:09.778Z,400
2017-07-24T08:09:31.295Z,410
2017-07-24T08:10:53.269Z,415
2017-07-24T08:12:15.434Z,415
2017-07-24T08:13:37.587Z,405
2017-07-24T08:15:00.376Z,395
2017-07-24T08:16:22.214Z,390
2017-07-24T08:17:44.014Z,395
2017-07-24T08:19:05.416Z,400
2017-07-24T08:20:26.956Z,410
2017-07-24T08:21:48.796Z,405
2017-07-24T08:23:11.203Z,400
2017-07-24T08:24:33.148Z,400
2017-07-24T08:25:55.309Z,400
2017-07-24T08:27:17.799Z,400
2017-07-24T08:28:39.807Z,395
2017-07-24T08:30:01.671Z,400
2017-07-24T08:31:23.208Z,410
2017-07-24T08:32:45.776Z,415
2017-07-24T08:34:07.577Z,425
2017-07-24T08:35:30.073Z,435
2017-07-24T08:36:52.250Z,435
2017-07-24T08:38:14.176Z,445
2017-07-24T08:39:36.385Z,455
2017-07-24T08:40:58.566Z,460
2017-07-24T08:42:20.741Z,465
2017-07-24T08:43:42.640Z,475
2017-07-24T08:45:05.515Z,490
2017-07-24T08:46:27.055Z,490
2017-07-24T08:47:48.923Z,480
2017-07-24T08:49:11.093Z,460
2017-07-24T08:50:33.565Z,455
2017-07-24T08:51:55.111Z,455
2017-07-24T08:53:16.948Z,450
2017-07-24T08:54:39.106Z,445
2017-07-24T08:56:01.537Z,435
2017-07-24T08:57:24.040Z,435
2017-07-24T08:58:46.545Z,450
2017-07-24T09:00:08.067Z,470
2017-07-24T09:01:30.209Z,480
2017-07-24T09:02:52.415Z,485
2017-07-24T09:04:14.294Z,485
2017-07-24T09:05:35.836Z,490
2017-07-24T09:06:58.296Z,495
2017-07-24T09:08:20.463Z,490
2017-07-24T09:09:41.996Z,490
2017-07-24T09:11:04.486Z,485
2017-07-24T09:12:26.982Z,480
2017-07-24T09:13:49.184Z,480
2017-07-24T09:15:11.364Z,485
2017-07-24T09:16:33.883Z,490
2017-07-24T09:17:56.466Z,495
2017-07-24T09:19:18.615Z,495
2017-07-24T09:20:40.883Z,510
2017-07-24T09:22:02.155Z,510
2017-07-24T09:23:24.686Z,510
2017-07-24T09:24:46.899Z,505
2017-07-24T09:26:09.364Z,500
2017-07-24T09:27:31.983Z,500
2017-07-24T09:28:54.452Z,495
2017-07-24T09:30:16.946Z,495
2017-07-24T09:31:38.824Z,490
2017-07-24T09:33:00.373Z,490
2017-07-24T09:34:22.790Z,470
2017-07-24T09:35:44.636Z,455
2017-07-24T09:37:06.798Z,435
2017-07-24T09:38:28.194Z,405
2017-07-24T09:39:50.335Z,370
2017-07-24T09:41:12.178Z,355
2017-07-24T09:42:34.352Z,355
2017-07-24T09:43:55.995Z,355
2017-07-24T09:45:18.404Z,345
2017-07-24T09:46:39.958Z,345
2017-07-24T09:48:01.870Z,355
2017-07-24T09:49:24.336Z,370
2017-07-24T09:50:46.752Z,390
2017-07-24T09:52:08.935Z,390
2017-07-24T09:53:31.407Z,390
2017-07-24T09:54:53.555Z,385
2017-07-24T09:56:16.033Z,380
2017-07-24T09:57:37.566Z,370
2017-07-24T09:59:00.045Z,365
2017-07-24T10:00:22.265Z,360
2017-07-24T10:01:44.066Z,350
2017-07-24T10:03:06.221Z,345
2017-07-24T10:04:28.455Z,345
2017-07-24T10:05:50.294Z,345
2017-07-24T10:07:12.426Z,345
2017-07-24T10:08:34.941Z,330
2017-07-24T10:09:56.836Z,315
2017-07-24T10:11:18.760Z,295
2017-07-24T10:12:41.065Z,280
2017-07-24T10:14:03.225Z,265
2017-07-24T10:15:25.074Z,250
2017-07-24T10:16:47.578Z,240
2017-07-24T10:18:10.317Z,235
2017-07-24T10:19:32.550Z,230
2017-07-24T10:20:55.042Z,225
2017-07-24T10:22:17.262Z,220
2017-07-24T10:23:39.634Z,220
2017-07-24T10:25:01.928Z,230
2017-07-24T10:26:24.090Z,235
2017-07-24T10:27:45.932Z,230
2017-07-24T10:29:07.749Z,225
2017-07-24T10:30:29.631Z,220
2017-07-24T10:31:51.489Z,215
2017-07-24T10:33:13.700Z,210
2017-07-24T10:34:36.125Z,200
2017-07-24T10:35:58.303Z,195
2017-07-24T10:37:20.838Z,185
2017-07-24T10:38:42.757Z,180
2017-07-24T10:40:05.185Z,175
2017-07-24T10:41:27.789Z,180
2017-07-24T10:42:49.650Z,175
2017-07-24T10:44:11.499Z,170
2017-07-24T10:45:33.706Z,165
2017-07-24T10:46:55.878Z,170
2017-07-24T10:48:18.377Z,180
2017-07-24T10:49:39.995Z,195
2017-07-24T10:51:02.580Z,210
2017-07-24T10:52:25.066Z,230
2017-07-24T10:53:47.536Z,260
2017-07-24T10:55:09.735Z,280
2017-07-24T10:56:32.585Z,300
2017-07-24T10:57:54.774Z,305
2017-07-24T10:59:17.126Z,295
2017-07-24T11:00:39.727Z,275
2017-07-24T11:02:02.580Z,250
2017-07-24T11:03:24.414Z,225
2017-07-24T11:04:46.258Z,215
2017-07-24T11:06:08.713Z,215
2017-07-24T11:07:30.527Z,235
2017-07-24T11:08:52.744Z,265
2017-07-24T11:10:15.242Z,320
2017-07-24T11:11:37.416Z,375
2017-07-24T11:12:59.869Z,410
2017-07-24T11:14:21.750Z,425
2017-07-24T11:15:43.894Z,410
2017-07-24T11:17:05.734Z,400
2017-07-24T11:18:27.848Z,415
2017-07-24T11:19:50.527Z,425
2017-07-24T11:21:12.707Z,425
2017-07-24T11:22:35.305Z,420
2017-07-24T11:23:57.874Z,430
2017-07-24T11:25:19.781Z,460
2017-07-24T11:26:41.970Z,485
2017-07-24T11:28:04.497Z,500
2017-07-24T11:29:26.935Z,510
2017-07-24T11:30:48.846Z,520
2017-07-24T11:32:10.995Z,530
2017-07-24T11:33:33.177Z,535
2017-07-24T11:34:55.276Z,545
2017-07-24T11:36:17.436Z,545
2017-07-24T11:37:40.064Z,545
2017-07-24T11:39:02.531Z,545
2017-07-24T11:40:25.323Z,555
2017-07-24T11:41:47.278Z,565
2017-07-24T11:43:08.825Z,585
2017-07-24T11:44:31.048Z,600
2017-07-24T11:45:52.814Z,605
2017-07-24T11:47:14.806Z,600
2017-07-24T11:48:37.323Z,585
2017-07-24T11:49:59.492Z,560
2017-07-24T11:51:22.074Z,535
2017-07-24T11:52:44.245Z,530
2017-07-24T11:54:06.747Z,545
2017-07-24T11:55:29.022Z,560
2017-07-24T11:56:51.504Z,560
2017-07-24T11:58:13.656Z,560
2017-07-24T11:59:35.516Z,560
2017-07-24T12:00:57.725Z,555
2017-07-24T12:02:19.861Z,565
2017-07-24T12:03:41.724Z,585
2017-07-24T12:05:03.715Z,610
2017-07-24T12:06:26.221Z,630
2017-07-24T12:07:48.644Z,590
2017-07-24T12:09:10.526Z,555
2017-07-24T12:10:32.384Z,535
2017-07-24T12:11:54.004Z,530
2017-07-24T12:13:16.848Z,505
2017-07-24T12:14:39.335Z,485
2017-07-24T12:16:01.192Z,470
2017-07-24T12:17:23.356Z,465
2017-07-24T12:18:45.669Z,465
2017-07-24T12:20:07.854Z,485
2017-07-24T12:21:29.418Z,505
2017-07-24T12:22:51.569Z,530
2017-07-24T12:24:13.712Z,550
2017-07-24T12:25:35.876Z,550
2017-07-24T12:26:58.141Z,550
2017-07-24T12:28:20.475Z,550
2017-07-24T12:29:43.225Z,545
2017-07-24T12:31:05.385Z,555
2017-07-24T12:32:27.914Z,560
2017-07-24T12:33:49.789Z,560
2017-07-24T12:35:12.375Z,550
2017-07-24T12:36:34.862Z,555
2017-07-24T12:37:56.385Z,540
2017-07-24T12:39:18.870Z,545
2017-07-24T12:40:41.342Z,555
2017-07-24T12:42:03.903Z,570
2017-07-24T12:43:25.137Z,565
2017-07-24T12:44:46.983Z,560
2017-07-24T12:46:09.855Z,570
2017-07-24T12:47:31.988Z,600
2017-07-24T12:48:53.951Z,635
2017-07-24T12:50:16.167Z,600
2017-07-24T12:51:38.677Z,565
2017-07-24T12:53:00.852Z,530
2017-07-24T12:54:23.419Z,505
2017-07-24T12:55:45.584Z,495
2017-07-24T12:57:07.475Z,475
2017-07-24T12:58:29.195Z,465
2017-07-24T12:59:51.069Z,455
2017-07-24T13:01:13.545Z,450
2017-07-24T13:02:36.312Z,445
2017-07-24T13:03:58.816Z,430
2017-07-24T13:05:20.665Z,405
2017-07-24T13:06:42.546Z,420
2017-07-24T13:08:05.315Z,440
2017-07-24T13:09:27.545Z,445
2017-07-24T13:10:50.035Z,425
2017-07-24T13:12:11.885Z,400
2017-07-24T13:13:34.331Z,350
2017-07-24T13:14:56.919Z,320
2017-07-24T13:16:19.105Z,305
2017-07-24T13:17:40.995Z,300
2017-07-24T13:19:03.467Z,295
2017-07-24T13:20:25.065Z,280
2017-07-24T13:21:46.923Z,260
2017-07-24T13:23:08.456Z,250
2017-07-24T13:24:31.186Z,250
2017-07-24T13:25:53.055Z,275
2017-07-24T13:27:15.360Z,295
2017-07-24T13:28:37.206Z,315
2017-07-24T13:30:00.121Z,315
2017-07-24T13:31:22.274Z,330
2017-07-24T13:32:43.822Z,360
2017-07-24T13:34:05.681Z,390
2017-07-24T13:35:27.454Z,410
2017-07-24T13:36:49.305Z,420
2017-07-24T13:38:11.185Z,430
2017-07-24T13:39:33.476Z,415
2017-07-24T13:40:55.746Z,395
2017-07-24T13:42:17.585Z,390
2017-07-24T13:43:40.151Z,395
2017-07-24T13:45:02.014Z,400
2017-07-24T13:46:24.712Z,400
2017-07-24T13:47:47.258Z,410
2017-07-24T13:49:09.476Z,405
2017-07-24T13:50:31.326Z,405
2017-07-24T13:51:53.854Z,380
2017-07-24T13:53:16.347Z,375
2017-07-24T13:54:38.527Z,360
2017-07-24T13:56:01.030Z,335
2017-07-24T13:57:23.185Z,305
2017-07-24T13:58:45.708Z,280
2017-07-24T14:00:07.565Z,265
2017-07-24T14:01:30.035Z,255
2017-07-24T14:02:52.448Z,255
2017-07-24T14:04:14.626Z,270
2017-07-24T14:05:36.825Z,295
2017-07-24T14:06:59.165Z,330
2017-07-24T14:08:21.451Z,350
2017-07-24T14:09:43.651Z,355
2017-07-24T14:11:06.145Z,350
2017-07-24T14:12:27.689Z,320
2017-07-24T14:13:49.827Z,290
2017-07-24T14:15:11.996Z,270
2017-07-24T14:16:34.485Z,260
2017-07-24T14:17:56.996Z,250
2017-07-24T14:19:19.166Z,250
2017-07-24T14:20:41.698Z,250
2017-07-24T14:22:03.265Z,255
2017-07-24T14:23:25.750Z,255
2017-07-24T14:24:48.167Z,240
2017-07-24T14:26:10.064Z,230
2017-07-24T14:27:32.398Z,215
2017-07-24T14:28:54.890Z,210
2017-07-24T14:30:17.372Z,210
2017-07-24T14:31:39.542Z,220
2017-07-24T14:33:01.721Z,230
2017-07-24T14:34:24.196Z,240
2017-07-24T14:35:46.336Z,250
2017-07-24T14:37:08.855Z,260
2017-07-24T14:38:31.150Z,280
2017-07-24T14:39:53.635Z,300
2017-07-24T14:41:15.680Z,325
2017-07-24T14:42:37.888Z,340
2017-07-24T14:44:00.496Z,340
2017-07-24T14:45:22.985Z,335
2017-07-24T14:46:45.794Z,335
2017-07-24T14:48:07.967Z,330
2017-07-24T14:49:30.323Z,315
2017-07-24T14:50:52.168Z,300
2017-07-24T14:52:15.115Z,295
2017-07-24T14:53:36.985Z,280
2017-07-24T14:54:59.638Z,270
2017-07-24T14:56:22.228Z,265
2017-07-24T14:57:45.048Z,260
2017-07-24T14:59:07.732Z,255
2017-07-24T15:00:29.325Z,245
2017-07-24T15:01:51.586Z,225
2017-07-24T15:03:13.689Z,220
2017-07-24T15:04:35.895Z,200
2017-07-24T15:05:58.397Z,200
2017-07-24T15:07:19.936Z,195
2017-07-24T15:08:42.699Z,200
2017-07-24T15:10:04.966Z,190
2017-07-24T15:11:27.134Z,185
2017-07-24T15:12:49.406Z,185
2017-07-24T15:14:11.547Z,180
2017-07-24T15:15:34.038Z,175
2017-07-24T15:16:56.185Z,175
2017-07-24T15:18:18.045Z,180
2017-07-24T15:19:40.159Z,185
2017-07-24T15:21:02.636Z,185
2017-07-24T15:22:24.877Z,185
2017-07-24T15:23:47.410Z,185
2017-07-24T15:25:09.878Z,195
2017-07-24T15:26:32.429Z,210
2017-07-24T15:27:54.297Z,210
2017-07-24T15:29:16.169Z,210
2017-07-24T15:30:39.114Z,210
2017-07-24T15:32:01.577Z,210
2017-07-24T15:33:23.458Z,205
2017-07-24T15:34:45.737Z,205
2017-07-24T15:36:08.197Z,200
2017-07-24T15:37:30.145Z,195
2017-07-24T15:38:51.999Z,195
2017-07-24T15:40:14.518Z,185
2017-07-24T15:41:37.357Z,170
2017-07-24T15:42:59.244Z,160
2017-07-24T15:44:21.835Z,160
2017-07-24T15:45:43.757Z,155
2017-07-24T15:47:06.348Z,145
2017-07-24T15:48:28.976Z,145
2017-07-24T15:49:50.516Z,145
2017-07-24T15:51:12.363Z,160
2017-07-24T15:52:35.196Z,165
2017-07-24T15:53:57.683Z,165
2017-07-24T15:55:19.538Z,165
2017-07-24T15:56:41.396Z,160
2017-07-24T15:58:03.896Z,145
2017-07-24T15:59:25.765Z,135
2017-07-24T16:00:48.327Z,120
2017-07-24T16:02:10.801Z,100
2017-07-24T16:03:32.897Z,85
2017-07-24T16:04:55.266Z,80
2017-07-24T16:06:17.768Z,75
2017-07-24T16:07:40.275Z,60
2017-07-24T16:09:02.396Z,45
2017-07-24T16:10:24.897Z,25
2017-07-24T16:11:47.736Z,35
2017-07-24T16:13:10.209Z,45
2017-07-24T16:14:32.416Z,55
2017-07-24T16:15:54.598Z,80
2017-07-24T16:17:16.786Z,100
2017-07-24T16:18:39.274Z,115
2017-07-24T16:20:01.688Z,115
2017-07-24T16:21:24.213Z,115
2017-07-24T16:22:46.703Z,115
2017-07-24T16:24:09.268Z,110
2017-07-24T16:25:31.408Z,110
2017-07-24T16:26:53.793Z,115
2017-07-24T16:28:15.636Z,110
2017-07-24T16:29:38.170Z,100
2017-07-24T16:31:01.042Z,95
2017-07-24T16:32:23.586Z,90
2017-07-24T16:33:45.447Z,85
2017-07-24T16:35:07.985Z,80
2017-07-24T16:36:30.459Z,70
2017-07-24T16:37:52.631Z,65
2017-07-24T16:39:15.254Z,65
2017-07-24T16:40:37.538Z,65
2017-07-24T16:41:59.981Z,60
2017-07-24T16:43:21.829Z,60
2017-07-24T16:44:44.127Z,65
2017-07-24T16:46:06.618Z,65
2017-07-24T16:47:29.335Z,65
2017-07-24T16:48:51.192Z,65
2017-07-24T16:50:13.687Z,65
2017-07-24T16:51:36.199Z,65
2017-07-24T16:52:58.326Z,65
2017-07-24T16:54:20.810Z,65
2017-07-24T16:55:42.999Z,65
2017-07-24T16:57:05.519Z,65
2017-07-24T16:58:27.989Z,65
2017-07-24T16:59:50.176Z,70
2017-07-24T17:01:12.801Z,70
2017-07-24T17:02:35.306Z,75
2017-07-24T17:03:58.059Z,80
2017-07-24T17:05:20.245Z,80
2017-07-24T17:06:42.757Z,80
2017-07-24T17:08:04.680Z,85
2017-07-24T17:09:27.097Z,85
2017-07-24T17:10:48.921Z,85
2017-07-24T17:12:10.775Z,85
2017-07-24T17:13:32.969Z,85
2017-07-24T17:14:55.707Z,80
2017-07-24T17:16:17.956Z,80
2017-07-24T17:17:40.267Z,75
2017-07-24T17:19:02.406Z,75
2017-07-24T17:20:24.816Z,70
2017-07-24T17:21:46.367Z,65
2017-07-24T17:23:08.538Z,65
2017-07-24T17:24:31.028Z,60
2017-07-24T17:25:53.994Z,60
2017-07-24T17:27:16.499Z,60
2017-07-24T17:28:38.995Z,60
2017-07-24T17:30:01.799Z,55
2017-07-24T17:31:24.663Z,55
2017-07-24T17:32:46.537Z,50
2017-07-24T17:34:08.728Z,50
2017-07-24T17:35:30.921Z,50
2017-07-24T17:36:53.414Z,50
2017-07-24T17:38:15.918Z,50
2017-07-24T17:39:38.098Z,50
2017-07-24T17:41:00.604Z,50
2017-07-24T17:42:23.436Z,50
2017-07-24T17:43:45.922Z,50
2017-07-24T17:45:08.508Z,45
2017-07-24T17:46:30.381Z,45
2017-07-24T17:47:53.168Z,40
2017-07-24T17:49:15.472Z,35
2017-07-24T17:50:37.017Z,30
2017-07-24T17:51:59.192Z,30
2017-07-24T17:53:21.628Z,25
2017-07-24T17:54:44.256Z,20
2017-07-24T17:56:06.507Z,15
2017-07-24T17:57:28.715Z,10
2017-07-24T17:58:51.201Z,10
2017-07-24T18:00:13.074Z,5
2017-07-24T18:01:35.306Z,5
2017-07-24T18:02:57.786Z,10
2017-07-24T18:04:20.227Z,10
2017-07-24T18:05:42.091Z,15
2017-07-24T18:07:04.581Z,15
2017-07-24T18:08:26.827Z,15
2017-07-24T18:09:49.087Z,15
2017-07-24T18:11:11.577Z,15
2017-07-24T18:12:33.797Z,10
2017-07-24T18:13:55.987Z,15
2017-07-24T18:15:18.394Z,10
2017-07-24T18:16:40.651Z,10
2017-07-24T18:18:02.615Z,5
2017-07-24T18:19:24.172Z,0
2017-07-24T18:20:46.271Z,0
2017-07-24T18:22:08.768Z,0
2017-07-24T18:23:30.782Z,5
2017-07-24T18:24:53.266Z,5
2017-07-24T18:26:16.008Z,5
2017-07-24T18:27:38.526Z,5
2017-07-24T18:29:00.707Z,10
2017-07-24T18:30:22.886Z,10
2017-07-24T18:31:45.738Z,10
2017-07-24T18:33:07.908Z,10
2017-07-24T18:34:30.520Z,10
2017-07-24T18:35:53.007Z,10
2017-07-24T18:37:15.487Z,5
2017-07-24T18:38:38.027Z,5
2017-07-24T18:40:00.224Z,5
2017-07-24T18:41:22.739Z,5
2017-07-24T18:42:45.199Z,5
2017-07-24T18:44:07.397Z,5
2017-07-24T18:45:29.995Z,5
2017-07-24T18:46:52.260Z,5
2017-07-24T18:48:14.755Z,5
2017-07-24T18:49:37.268Z,10
2017-07-24T18:50:59.522Z,10
2017-07-24T18:52:21.708Z,10
2017-07-24T18:53:44.170Z,10
2017-07-24T18:55:06.530Z,10
2017-07-24T18:56:28.491Z,10
2017-07-24T18:57:51.022Z,10
2017-07-24T18:59:13.466Z,10
2017-07-24T19:00:35.644Z,5
2017-07-24T19:01:57.316Z,5
2017-07-24T19:03:19.330Z,5
2017-07-24T19:04:41.238Z,5
2017-07-24T19:06:03.578Z,5
2017-07-24T19:07:25.430Z,5
2017-07-24T19:08:47.318Z,5
2017-07-24T19:10:09.839Z,5
2017-07-24T19:11:31.076Z,5
2017-07-24T19:12:53.271Z,5
2017-07-24T19:14:15.470Z,5
2017-07-24T19:15:37.907Z,5